createdAt,value
2023-05-22T00:03:24.927Z,97417.41
2023-05-22T00:07:29.276Z,97422.66
2023-05-22T00:11:35.522Z,97417.81
2023-05-22T00:15:38.545Z,97415.03
2023-05-22T00:19:42.293Z,97420.72
2023-05-22T00:23:46.946Z,97407.94
2023-05-22T00:27:51.087Z,97411.00
2023-05-22T00:31:54.254Z,97405.94
2023-05-22T00:35:58.413Z,97410.63
2023-05-22T00:40:06.046Z,97403.94
2023-05-22T00:44:09.723Z,97407.81
2023-05-22T00:48:13.928Z,97397.69
2023-05-22T00:52:18.651Z,97387.34
2023-05-22T00:56:23.691Z,97389.19
2023-05-22T01:00:28.186Z,97392.03
2023-05-22T01:04:33.561Z,97393.47
2023-05-22T01:08:37.104Z,97390.84
2023-05-22T01:12:54.518Z,97393.72
2023-05-22T01:17:08.960Z,97395.78
2023-05-22T01:21:19.047Z,97393.38
2023-05-22T01:25:46.056Z,97392.97
2023-05-22T01:30:02.123Z,97400.88
2023-05-22T01:34:11.517Z,97400.69
2023-05-22T01:38:16.551Z,97390.97
2023-05-22T01:42:20.035Z,97394.44
2023-05-22T01:46:23.672Z,97394.44
2023-05-22T01:50:28.978Z,97395.06
2023-05-22T01:54:40.202Z,97383.53
2023-05-22T01:58:53.311Z,97386.56
2023-05-22T02:03:01.017Z,97392.22
2023-05-22T02:07:06.531Z,97388.19
2023-05-22T02:11:12.941Z,97387.59
2023-05-22T02:15:16.621Z,97383.53
2023-05-22T02:19:20.219Z,97385.19
2023-05-22T02:23:25.092Z,97386.16
2023-05-22T02:27:28.822Z,97393.06
2023-05-22T02:31:31.877Z,97388.78
2023-05-22T02:35:35.587Z,97394.47
2023-05-22T02:39:40.086Z,97398.31
2023-05-22T02:43:43.998Z,97382.16
2023-05-22T02:47:47.499Z,97377.88
2023-05-22T02:51:51.298Z,97378.91
2023-05-22T02:55:59.162Z,97370.38
2023-05-22T03:00:03.109Z,97382.13
2023-05-22T03:04:07.382Z,97376.47
2023-05-22T03:08:10.372Z,97373.63
2023-05-22T03:12:15.356Z,97375.47
2023-05-22T03:16:18.399Z,97376.63
2023-05-22T03:20:22.261Z,97368.31
2023-05-22T03:24:25.306Z,97377.19
2023-05-22T03:28:30.477Z,97383.88
2023-05-22T03:32:37.450Z,97381.44
2023-05-22T03:36:41.932Z,97375.19
2023-05-22T03:40:45.043Z,97364.28
2023-05-22T03:44:50.641Z,97371.34
2023-05-22T03:48:54.473Z,97358.22
2023-05-22T03:52:57.418Z,97372.59
2023-05-22T03:57:01.510Z,97357.47
2023-05-22T04:01:06.673Z,97360.28
2023-05-22T04:05:11.517Z,97358.03
2023-05-22T04:09:15.226Z,97347.13
2023-05-22T04:13:20.148Z,97352.56
2023-05-22T04:17:25.195Z,97352.97
2023-05-22T04:21:28.749Z,97357.78
2023-05-22T04:25:32.604Z,97354.94
2023-05-22T04:29:36.657Z,97361.38
2023-05-22T04:33:41.923Z,97361.78
2023-05-22T04:37:45.709Z,97368.22
2023-05-22T04:41:49.961Z,97371.44
2023-05-22T04:45:52.935Z,97374.22
2023-05-22T04:49:59.103Z,97367.50
2023-05-22T04:54:02.255Z,97368.84
2023-05-22T04:58:06.781Z,97370.22
2023-05-22T05:02:10.808Z,97372.16
2023-05-22T05:06:18.165Z,97372.50
2023-05-22T05:10:21.435Z,97376.56
2023-05-22T05:14:24.888Z,97383.19
2023-05-22T05:18:28.379Z,97378.25
2023-05-22T05:22:34.109Z,97380.78
2023-05-22T05:26:37.236Z,97383.75
2023-05-22T05:30:41.320Z,97385.88
2023-05-22T05:34:44.739Z,97381.97
2023-05-22T05:38:49.995Z,97379.41
2023-05-22T05:42:53.192Z,97384.22
2023-05-22T05:46:57.708Z,97383.47
2023-05-22T05:51:01.336Z,97376.25
2023-05-22T05:55:07.186Z,97381.72
2023-05-22T05:59:10.592Z,97376.66
2023-05-22T06:03:15.136Z,97380.91
2023-05-22T06:07:18.400Z,97379.84
2023-05-22T06:11:23.629Z,97369.56
2023-05-22T06:15:27.256Z,97360.88
2023-05-22T06:19:31.313Z,97364.84
2023-05-22T06:23:34.666Z,97353.09
2023-05-22T06:27:39.868Z,97356.81
2023-05-22T06:31:43.177Z,97350.13
2023-05-22T06:35:46.537Z,97351.13
2023-05-22T06:39:51.784Z,97357.34
2023-05-22T06:43:56.857Z,97355.66
2023-05-22T06:48:00.240Z,97348.44
2023-05-22T06:52:05.339Z,97345.34
2023-05-22T06:56:09.419Z,97337.34
2023-05-22T07:00:18.297Z,97347.06
2023-05-22T07:04:23.695Z,97344.75
2023-05-22T07:08:29.691Z,97343.44
2023-05-22T07:12:33.483Z,97347.91
2023-05-22T07:16:38.664Z,97339.56
2023-05-22T07:20:42.169Z,97343.97
2023-05-22T07:24:47.754Z,97332.06
2023-05-22T07:28:50.854Z,97330.22
2023-05-22T07:32:55.597Z,97338.78
2023-05-22T07:36:58.768Z,97333.06
2023-05-22T07:41:03.940Z,97329.41
2023-05-22T07:45:08.111Z,97327.88
2023-05-22T07:49:13.042Z,97329.94
2023-05-22T07:53:16.601Z,97329.94
2023-05-22T07:57:19.848Z,97321.63
2023-05-22T08:01:24.798Z,97319.19
2023-05-22T08:05:29.838Z,97322.34
2023-05-22T08:09:35.044Z,97317.41
2023-05-22T08:13:39.282Z,97320.44
2023-05-22T08:17:44.131Z,97322.03
2023-05-22T08:21:48.937Z,97321.41
2023-05-22T08:25:51.989Z,97326.50
2023-05-22T08:29:55.272Z,97319.69
2023-05-22T08:34:02.598Z,97311.56
2023-05-22T08:38:08.095Z,97305.41
2023-05-22T08:42:11.181Z,97300.56
2023-05-22T08:46:16.664Z,97310.31
2023-05-22T08:50:20.849Z,97297.84
2023-05-22T08:54:28.501Z,97293.66
2023-05-22T08:58:33.960Z,97289.59
2023-05-22T09:02:39.106Z,97284.94
2023-05-22T09:06:42.461Z,97280.66
2023-05-22T09:10:47.718Z,97280.09
2023-05-22T09:14:51.878Z,97279.66
2023-05-22T09:18:58.881Z,97279.31
2023-05-22T09:23:02.742Z,97277.75
2023-05-22T09:27:11.128Z,97274.41
2023-05-22T09:31:14.580Z,97282.53
2023-05-22T09:35:19.615Z,97270.56
2023-05-22T09:39:22.624Z,97271.19
2023-05-22T09:43:27.587Z,97280.72
2023-05-22T09:47:30.801Z,97271.47
2023-05-22T09:51:37.528Z,97277.69
2023-05-22T09:55:41.650Z,97273.84
2023-05-22T09:59:54.891Z,97269.03
2023-05-22T10:03:59.599Z,97262.69
2023-05-22T10:08:09.585Z,97273.97
2023-05-22T10:12:16.638Z,97265.41
2023-05-22T10:16:21.876Z,97256.59
2023-05-22T10:20:26.580Z,97262.78
2023-05-22T10:24:31.419Z,97252.72
2023-05-22T10:28:40.365Z,97250.13
2023-05-22T10:32:48.460Z,97253.84
2023-05-22T10:37:13.217Z,97244.38
2023-05-22T10:41:20.613Z,97247.84
2023-05-22T10:45:26.916Z,97248.59
2023-05-22T10:49:32.499Z,97243.88
2023-05-22T10:53:36.569Z,97240.97
2023-05-22T10:57:41.285Z,97231.13
2023-05-22T11:01:44.305Z,97228.16
2023-05-22T11:05:55.481Z,97232.66
2023-05-22T11:10:01.946Z,97232.84
2023-05-22T11:14:05.382Z,97229.50
2023-05-22T11:18:08.717Z,97217.38
2023-05-22T11:22:14.417Z,97213.94
2023-05-22T11:26:23.268Z,97216.03
2023-05-22T11:30:29.007Z,97198.56
2023-05-22T11:34:32.328Z,97198.44
2023-05-22T11:38:37.630Z,97197.47
2023-05-22T11:42:41.042Z,97194.59
2023-05-22T11:46:45.086Z,97188.38
2023-05-22T11:50:49.094Z,97190.84
2023-05-22T11:54:54.638Z,97190.16
2023-05-22T11:58:58.136Z,97184.16
2023-05-22T12:03:01.688Z,97189.63
2023-05-22T12:07:06.511Z,97180.41
2023-05-22T12:11:13.944Z,97180.13
2023-05-22T12:15:21.603Z,97176.81
2023-05-22T12:19:27.689Z,97172.56
2023-05-22T12:23:31.764Z,97182.50
2023-05-22T12:27:38.003Z,97177.66
2023-05-22T12:31:42.142Z,97163.75
2023-05-22T12:35:45.715Z,97171.00
2023-05-22T12:39:56.588Z,97175.28
2023-05-22T12:44:02.659Z,97165.50
2023-05-22T12:48:05.867Z,97163.53
2023-05-22T12:52:09.473Z,97156.72
2023-05-22T12:56:13.010Z,97164.66
2023-05-22T13:00:19.673Z,97158.50
2023-05-22T13:04:23.229Z,97161.47
2023-05-22T13:08:26.536Z,97154.94
2023-05-22T13:12:31.123Z,97146.13
2023-05-22T13:16:37.807Z,97142.81
2023-05-22T13:20:42.039Z,97149.38
2023-05-22T13:24:45.533Z,97144.97
2023-05-22T13:28:48.475Z,97136.25
2023-05-22T13:32:53.254Z,97139.63
2023-05-22T13:36:56.567Z,97122.25
2023-05-22T13:41:00.649Z,97126.75
2023-05-22T13:45:03.738Z,97129.97
2023-05-22T13:49:08.463Z,97136.25
2023-05-22T13:53:11.317Z,97131.88
2023-05-22T13:57:14.446Z,97119.16
2023-05-22T14:01:17.413Z,97127.22
2023-05-22T14:05:22.360Z,97124.97
2023-05-22T14:09:25.303Z,97105.28
2023-05-22T14:13:28.385Z,97110.47
2023-05-22T14:17:31.455Z,97105.97
2023-05-22T14:21:36.016Z,97109.16
2023-05-22T14:25:42.747Z,97100.47
2023-05-22T14:29:45.915Z,97106.50
2023-05-22T14:33:48.863Z,97097.25
2023-05-22T14:37:53.499Z,97092.09
2023-05-22T14:41:56.609Z,97091.53
2023-05-22T14:46:00.184Z,97102.53
2023-05-22T14:50:18.212Z,97096.34
2023-05-22T14:54:24.238Z,97097.47
2023-05-22T14:58:27.146Z,97089.06
2023-05-22T15:02:30.479Z,97090.59
2023-05-22T15:06:33.438Z,97099.66
2023-05-22T15:10:38.335Z,97105.00
2023-05-22T15:14:41.582Z,97096.50
2023-05-22T15:18:45.032Z,97092.97
2023-05-22T15:22:48.330Z,97078.09
2023-05-22T15:26:53.372Z,97090.78
2023-05-22T15:30:56.283Z,97087.56
2023-05-22T15:34:59.533Z,97087.69
2023-05-22T15:39:03.292Z,97076.88
2023-05-22T15:43:08.445Z,97069.09
2023-05-22T15:47:11.494Z,97062.09
2023-05-22T15:51:14.797Z,97065.94
2023-05-22T15:55:17.935Z,97057.53
2023-05-22T15:59:39.069Z,97065.28
2023-05-22T16:03:42.260Z,97049.97
2023-05-22T16:08:00.371Z,97067.00
2023-05-22T16:12:03.978Z,97064.72
2023-05-22T16:16:09.948Z,97067.66
2023-05-22T16:20:13.558Z,97064.91
2023-05-22T16:24:16.937Z,97065.50
2023-05-22T16:28:20.402Z,97064.41
2023-05-22T16:32:25.233Z,97073.16
2023-05-22T16:36:28.672Z,97063.19
2023-05-22T16:40:32.025Z,97076.34
2023-05-22T16:44:34.984Z,97080.13
2023-05-22T16:48:39.859Z,97082.34
2023-05-22T16:52:43.189Z,97078.47
2023-05-22T16:56:46.834Z,97075.72
2023-05-22T17:00:51.063Z,97082.41
2023-05-22T17:04:56.098Z,97085.41
2023-05-22T17:08:59.339Z,97084.47
2023-05-22T17:13:02.815Z,97082.06
2023-05-22T17:17:06.547Z,97079.47
2023-05-22T17:21:11.297Z,97077.69
2023-05-22T17:25:15.200Z,97084.19
2023-05-22T17:29:18.772Z,97084.09
2023-05-22T17:33:22.162Z,97078.25
2023-05-22T17:37:27.069Z,97078.03
2023-05-22T17:41:31.079Z,97073.56
2023-05-22T17:45:34.736Z,97084.63
2023-05-22T17:49:38.704Z,97084.75
2023-05-22T17:53:43.863Z,97081.56
2023-05-22T17:57:46.923Z,97074.34
2023-05-22T18:01:50.409Z,97079.44
2023-05-22T18:05:53.652Z,97080.72
2023-05-22T18:09:58.481Z,97078.78
2023-05-22T18:14:01.598Z,97080.59
2023-05-22T18:18:05.782Z,97079.66
2023-05-22T18:22:08.818Z,97084.06
2023-05-22T18:26:13.552Z,97091.91
2023-05-22T18:30:17.502Z,97088.19
2023-05-22T18:34:20.789Z,97083.13
2023-05-22T18:38:24.563Z,97087.13
2023-05-22T18:42:29.134Z,97093.22
2023-05-22T18:46:32.229Z,97095.25
2023-05-22T18:50:35.578Z,97101.28
2023-05-22T18:54:38.671Z,97105.69
2023-05-22T18:58:43.698Z,97098.34
2023-05-22T19:02:47.488Z,97098.41
2023-05-22T19:06:54.148Z,97094.78
2023-05-22T19:11:00.038Z,97099.59
2023-05-22T19:15:08.510Z,97099.38
2023-05-22T19:19:11.778Z,97104.50
2023-05-22T19:23:15.449Z,97117.59
2023-05-22T19:27:18.905Z,97118.47
2023-05-22T19:31:23.632Z,97116.16
2023-05-22T19:35:26.821Z,97117.59
2023-05-22T19:39:29.993Z,97116.88
2023-05-22T19:43:33.238Z,97121.56
2023-05-22T19:47:38.251Z,97125.19
2023-05-22T19:51:42.349Z,97122.44
2023-05-22T19:55:46.161Z,97122.38
2023-05-22T19:59:49.396Z,97140.94
2023-05-22T20:03:57.999Z,97143.84
2023-05-22T20:08:01.586Z,97139.81
2023-05-22T20:12:04.563Z,97145.34
2023-05-22T20:16:13.145Z,97148.25
2023-05-22T20:20:18.150Z,97153.56
2023-05-22T20:24:22.156Z,97145.53
2023-05-22T20:28:26.972Z,97152.38
2023-05-22T20:32:30.152Z,97148.03
2023-05-22T20:36:35.780Z,97146.09
2023-05-22T20:40:39.014Z,97146.75
2023-05-22T20:44:43.978Z,97146.00
2023-05-22T20:48:48.341Z,97151.03
2023-05-22T20:52:53.797Z,97157.88
2023-05-22T20:56:57.256Z,97159.13
2023-05-22T21:01:00.629Z,97165.63
2023-05-22T21:05:04.069Z,97162.34
2023-05-22T21:09:09.001Z,97161.66
2023-05-22T21:13:12.010Z,97167.88
2023-05-22T21:17:15.810Z,97169.59
2023-05-22T21:21:21.108Z,97175.13
2023-05-22T21:25:25.646Z,97176.94
2023-05-22T21:29:28.847Z,97174.03
2023-05-22T21:33:32.115Z,97185.53
2023-05-22T21:37:35.353Z,97182.97
2023-05-22T21:41:40.101Z,97194.66
2023-05-22T21:45:43.118Z,97196.47
2023-05-22T21:49:46.405Z,97196.66
2023-05-22T21:53:49.417Z,97192.38
2023-05-22T21:57:54.395Z,97191.28
2023-05-22T22:01:57.540Z,97190.16
2023-05-22T22:06:01.003Z,97176.03
2023-05-22T22:10:04.726Z,97184.81
2023-05-22T22:14:10.172Z,97183.66
2023-05-22T22:18:15.269Z,97181.91
2023-05-22T22:22:18.898Z,97185.44
2023-05-22T22:26:22.269Z,97185.50
2023-05-22T22:30:26.909Z,97185.94
2023-05-22T22:34:29.868Z,97176.66
2023-05-22T22:38:35.478Z,97179.72
2023-05-22T22:42:38.865Z,97182.22
2023-05-22T22:46:44.855Z,97172.78
2023-05-22T22:50:47.837Z,97168.59
2023-05-22T22:54:51.325Z,97175.16
2023-05-22T22:58:54.641Z,97169.16
2023-05-22T23:02:59.484Z,97178.50
2023-05-22T23:07:03.377Z,97176.72
2023-05-22T23:11:07.220Z,97171.72
2023-05-22T23:15:13.993Z,97168.13
2023-05-22T23:19:19.228Z,97173.44
2023-05-22T23:23:22.655Z,97168.47
2023-05-22T23:27:26.134Z,97167.72
2023-05-22T23:31:30.895Z,97167.19
2023-05-22T23:35:36.034Z,97169.06
2023-05-22T23:39:40.198Z,97165.63
2023-05-22T23:43:43.968Z,97159.63
2023-05-22T23:47:47.304Z,97149.16
2023-05-22T23:51:52.495Z,97161.34
2023-05-22T23:55:55.746Z,97158.91
2023-05-22T23:59:59.577Z,97157.56
